sensor_id;sensor_type;location;lat;lon;timestamp;pressure;altitude;pressure_sealevel;temperature;humidity
68320;BME280;55168;51.120;17.024;2022-10-16T00:00:00;100110;;;12.6;100.0
68320;BME280;55168;51.120;17.024;2022-10-16T00:01:18;100110;;;12.6;100.0
68320;BME280;55168;51.120;17.024;2022-10-16T00:02:00;100100;;;12.6;100.0
68320;BME280;55168;51.120;17.024;2022-10-16T00:03:00;100110;;;12.6;100.0
68320;BME280;55168;51.120;17.024;2022-10-16T00:04:00;100110;;;12.6;100.0
68320;BME280;55168;51.120;17.024;2022-10-16T00:05:00;100110;;;12.6;100.0
68320;BME280;55168;51.120;17.024;2022-10-16T00:06:00;100100;;;12.6;100.0
68320;BME280;55168;51.120;17.024;2022-10-16T00:07:00;100110;;;12.5;100.0
68320;BME280;55168;51.120;17.024;2022-10-16T00:08:00;100110;;;12.6;100.0
68320;BME280;55168;51.120;17.024;2022-10-16T00:09:00;100110;;;12.5;100.0
68320;BME280;55168;51.120;17.024;2022-10-16T00:10:00;100110;;;12.6;100.0
68320;BME280;55168;51.120;17.024;2022-10-16T00:11:01;100110;;;12.5;100.0
68320;BME280;55168;51.120;17.024;2022-10-16T00:12:00;100110;;;12.5;100.0
68320;BME280;55168;51.120;17.024;2022-10-16T00:13:00;100110;;;12.5;100.0
68320;BME280;55168;51.120;17.024;2022-10-16T00:14:00;100110;;;12.5;100.0
68320;BME280;55168;51.120;17.024;2022-10-16T00:15:00;100110;;;12.5;100.0
68320;BME280;55168;51.120;17.024;2022-10-16T00:16:00;100110;;;12.5;100.0
68320;BME280;55168;51.120;17.024;2022-10-16T00:17:00;100120;;;12.5;100.0
68320;BME280;55168;51.120;17.024;2022-10-16T00:18:00;100110;;;12.5;100.0
68320;BME280;55168;51.120;17.024;2022-10-16T00:19:00;100110;;;12.5;100.0
68320;BME280;55168;51.120;17.024;2022-10-16T00:20:00;100110;;;12.5;100.0
68320;BME280;55168;51.120;17.024;2022-10-16T00:21:02;100110;;;12.4;100.0
68320;BME280;55168;51.120;17.024;2022-10-16T00:22:00;100110;;;12.4;100.0
68320;BME280;55168;51.120;17.024;2022-10-16T00:23:00;100110;;;12.4;100.0
68320;BME280;55168;51.120;17.024;2022-10-16T00:24:02;100110;;;12.4;100.0
68320;BME280;55168;51.120;17.024;2022-10-16T00:25:00;100110;;;12.4;100.0
68320;BME280;55168;51.120;17.024;2022-10-16T00:26:01;100110;;;12.4;100.0
68320;BME280;55168;51.120;17.024;2022-10-16T00:27:00;100110;;;12.4;100.0
68320;BME280;55168;51.120;17.024;2022-10-16T00:28:00;100110;;;12.4;100.0
68320;BME280;55168;51.120;17.024;2022-10-16T00:29:00;100110;;;12.4;100.0
68320;BME280;55168;51.120;17.024;2022-10-16T00:30:00;100110;;;12.4;100.0
68320;BME280;55168;51.120;17.024;2022-10-16T00:31:02;100110;;;12.4;100.0
68320;BME280;55168;51.120;17.024;2022-10-16T00:32:00;100110;;;12.3;100.0
68320;BME280;55168;51.120;17.024;2022-10-16T00:33:00;100110;;;12.4;100.0
68320;BME280;55168;51.120;17.024;2022-10-16T00:34:00;100110;;;12.4;100.0
68320;BME280;55168;51.120;17.024;2022-10-16T00:35:00;100110;;;12.4;100.0
68320;BME280;55168;51.120;17.024;2022-10-16T00:36:00;100110;;;12.4;100.0
68320;BME280;55168;51.120;17.024;2022-10-16T00:37:00;100110;;;12.4;100.0
68320;BME280;55168;51.120;17.024;2022-10-16T00:38:00;100110;;;12.4;100.0
68320;BME280;55168;51.120;17.024;2022-10-16T00:39:00;100110;;;12.4;100.0
68320;BME280;55168;51.120;17.024;2022-10-16T00:40:00;100110;;;12.4;100.0
68320;BME280;55168;51.120;17.024;2022-10-16T00:41:00;100110;;;12.4;100.0
68320;BME280;55168;51.120;17.024;2022-10-16T00:42:00;100110;;;12.4;100.0
68320;BME280;55168;51.120;17.024;2022-10-16T00:43:00;100110;;;12.4;100.0
68320;BME280;55168;51.120;17.024;2022-10-16T00:44:01;100110;;;12.4;100.0
68320;BME280;55168;51.120;17.024;2022-10-16T00:45:00;100110;;;12.4;100.0
68320;BME280;55168;51.120;17.024;2022-10-16T00:46:00;100110;;;12.4;100.0
68320;BME280;55168;51.120;17.024;2022-10-16T00:47:00;100110;;;12.4;100.0
68320;BME280;55168;51.120;17.024;2022-10-16T00:48:00;100110;;;12.4;100.0
68320;BME280;55168;51.120;17.024;2022-10-16T00:50:02;100110;;;12.4;100.0
68320;BME280;55168;51.120;17.024;2022-10-16T00:51:00;100110;;;12.4;100.0
68320;BME280;55168;51.120;17.024;2022-10-16T00:52:00;100110;;;12.4;100.0
68320;BME280;55168;51.120;17.024;2022-10-16T00:53:00;100110;;;12.4;100.0
68320;BME280;55168;51.120;17.024;2022-10-16T00:54:00;100110;;;12.4;100.0
68320;BME280;55168;51.120;17.024;2022-10-16T00:55:00;100110;;;12.4;100.0
68320;BME280;55168;51.120;17.024;2022-10-16T00:56:00;100110;;;12.4;100.0
68320;BME280;55168;51.120;17.024;2022-10-16T00:57:01;100110;;;12.4;100.0
68320;BME280;55168;51.120;17.024;2022-10-16T00:58:00;100110;;;12.4;100.0
68320;BME280;55168;51.120;17.024;2022-10-16T00:59:01;100110;;;12.4;100.0
68320;BME280;55168;51.120;17.024;2022-10-16T01:00:00;100110;;;12.4;100.0
68320;BME280;55168;51.120;17.024;2022-10-16T01:01:00;100110;;;12.4;100.0
68320;BME280;55168;51.120;17.024;2022-10-16T01:02:00;100110;;;12.4;100.0
68320;BME280;55168;51.120;17.024;2022-10-16T01:03:00;100110;;;12.4;100.0
68320;BME280;55168;51.120;17.024;2022-10-16T01:04:00;100110;;;12.4;100.0
68320;BME280;55168;51.120;17.024;2022-10-16T01:05:00;100110;;;12.4;100.0
68320;BME280;55168;51.120;17.024;2022-10-16T01:07:03;100100;;;12.4;100.0
68320;BME280;55168;51.120;17.024;2022-10-16T01:08:08;100100;;;12.4;100.0
68320;BME280;55168;51.120;17.024;2022-10-16T01:10:10;100110;;;12.4;100.0
68320;BME280;55168;51.120;17.024;2022-10-16T01:11:02;100110;;;12.4;100.0
68320;BME280;55168;51.120;17.024;2022-10-16T01:12:06;100110;;;12.4;100.0
68320;BME280;55168;51.120;17.024;2022-10-16T01:13:09;100100;;;12.4;100.0
68320;BME280;55168;51.120;17.024;2022-10-16T01:14:02;100110;;;12.4;100.0
68320;BME280;55168;51.120;17.024;2022-10-16T01:15:04;100100;;;12.4;100.0
68320;BME280;55168;51.120;17.024;2022-10-16T01:16:02;100100;;;12.4;100.0
68320;BME280;55168;51.120;17.024;2022-10-16T01:18:00;100110;;;12.4;100.0
68320;BME280;55168;51.120;17.024;2022-10-16T01:21:02;100100;;;12.4;100.0
68320;BME280;55168;51.120;17.024;2022-10-16T01:22:00;100110;;;12.4;100.0
68320;BME280;55168;51.120;17.024;2022-10-16T01:23:10;100100;;;12.5;100.0
68320;BME280;55168;51.120;17.024;2022-10-16T01:25:00;100110;;;12.4;100.0
68320;BME280;55168;51.120;17.024;2022-10-16T01:27:03;100110;;;12.5;100.0
68320;BME280;55168;51.120;17.024;2022-10-16T01:28:00;100120;;;12.5;100.0
68320;BME280;55168;51.120;17.024;2022-10-16T01:29:03;100120;;;12.5;100.0
68320;BME280;55168;51.120;17.024;2022-10-16T01:31:00;100120;;;12.5;100.0
68320;BME280;55168;51.120;17.024;2022-10-16T01:32:01;100120;;;12.5;100.0
68320;BME280;55168;51.120;17.024;2022-10-16T01:33:02;100120;;;12.5;100.0
68320;BME280;55168;51.120;17.024;2022-10-16T01:34:04;100120;;;12.5;100.0
68320;BME280;55168;51.120;17.024;2022-10-16T01:35:04;100120;;;12.5;100.0
68320;BME280;55168;51.120;17.024;2022-10-16T01:36:02;100120;;;12.5;100.0
68320;BME280;55168;51.120;17.024;2022-10-16T01:37:02;100110;;;12.5;100.0
68320;BME280;55168;51.120;17.024;2022-10-16T01:38:03;100110;;;12.4;100.0
68320;BME280;55168;51.120;17.024;2022-10-16T01:39:00;100110;;;12.4;100.0
68320;BME280;55168;51.120;17.024;2022-10-16T01:40:00;100110;;;12.4;100.0
68320;BME280;55168;51.120;17.024;2022-10-16T01:41:00;100110;;;12.4;100.0
68320;BME280;55168;51.120;17.024;2022-10-16T01:42:04;100110;;;12.4;100.0
68320;BME280;55168;51.120;17.024;2022-10-16T01:43:00;100100;;;12.4;100.0
68320;BME280;55168;51.120;17.024;2022-10-16T01:45:00;100100;;;12.4;100.0
68320;BME280;55168;51.120;17.024;2022-10-16T01:46:00;100100;;;12.4;100.0
68320;BME280;55168;51.120;17.024;2022-10-16T01:47:00;100110;;;12.4;100.0
68320;BME280;55168;51.120;17.024;2022-10-16T01:48:00;100110;;;12.4;100.0
68320;BME280;55168;51.120;17.024;2022-10-16T01:49:00;100110;;;12.4;100.0
68320;BME280;55168;51.120;17.024;2022-10-16T01:50:00;100110;;;12.4;100.0
68320;BME280;55168;51.120;17.024;2022-10-16T01:51:03;100120;;;12.4;100.0
68320;BME280;55168;51.120;17.024;2022-10-16T01:52:00;100110;;;12.4;100.0
68320;BME280;55168;51.120;17.024;2022-10-16T01:53:00;100120;;;12.4;100.0
68320;BME280;55168;51.120;17.024;2022-10-16T01:54:00;100120;;;12.4;100.0
68320;BME280;55168;51.120;17.024;2022-10-16T01:55:00;100120;;;12.4;100.0
68320;BME280;55168;51.120;17.024;2022-10-16T01:56:00;100120;;;12.4;100.0
68320;BME280;55168;51.120;17.024;2022-10-16T01:57:00;100120;;;12.4;100.0
68320;BME280;55168;51.120;17.024;2022-10-16T01:58:00;100110;;;12.4;100.0
68320;BME280;55168;51.120;17.024;2022-10-16T01:59:04;100120;;;12.4;100.0
68320;BME280;55168;51.120;17.024;2022-10-16T02:00:03;100120;;;12.4;100.0
68320;BME280;55168;51.120;17.024;2022-10-16T02:01:00;100120;;;12.4;100.0
68320;BME280;55168;51.120;17.024;2022-10-16T02:02:00;100120;;;12.3;100.0
68320;BME280;55168;51.120;17.024;2022-10-16T02:03:00;100120;;;12.4;100.0
68320;BME280;55168;51.120;17.024;2022-10-16T02:04:02;100120;;;12.4;100.0
68320;BME280;55168;51.120;17.024;2022-10-16T02:05:05;100120;;;12.4;100.0
68320;BME280;55168;51.120;17.024;2022-10-16T02:06:00;100120;;;12.4;100.0
68320;BME280;55168;51.120;17.024;2022-10-16T02:07:00;100120;;;12.4;100.0
68320;BME280;55168;51.120;17.024;2022-10-16T02:08:00;100120;;;12.4;100.0
68320;BME280;55168;51.120;17.024;2022-10-16T02:09:00;100120;;;12.4;100.0
68320;BME280;55168;51.120;17.024;2022-10-16T02:10:00;100120;;;12.4;100.0
68320;BME280;55168;51.120;17.024;2022-10-16T02:11:00;100120;;;12.4;100.0
68320;BME280;55168;51.120;17.024;2022-10-16T02:12:00;100120;;;12.4;100.0
68320;BME280;55168;51.120;17.024;2022-10-16T02:13:03;100120;;;12.4;100.0
68320;BME280;55168;51.120;17.024;2022-10-16T02:14:01;100120;;;12.4;100.0
68320;BME280;55168;51.120;17.024;2022-10-16T02:15:00;100130;;;12.4;100.0
68320;BME280;55168;51.120;17.024;2022-10-16T02:16:00;100130;;;12.4;100.0
68320;BME280;55168;51.120;17.024;2022-10-16T02:17:00;100120;;;12.4;100.0
68320;BME280;55168;51.120;17.024;2022-10-16T02:18:00;100120;;;12.4;100.0
68320;BME280;55168;51.120;17.024;2022-10-16T02:19:00;100120;;;12.5;100.0
68320;BME280;55168;51.120;17.024;2022-10-16T02:20:00;100120;;;12.5;100.0
68320;BME280;55168;51.120;17.024;2022-10-16T02:21:02;100130;;;12.5;100.0
68320;BME280;55168;51.120;17.024;2022-10-16T02:22:00;100130;;;12.5;100.0
68320;BME280;55168;51.120;17.024;2022-10-16T02:23:00;100130;;;12.5;100.0
68320;BME280;55168;51.120;17.024;2022-10-16T02:24:06;100130;;;12.5;100.0
68320;BME280;55168;51.120;17.024;2022-10-16T02:25:03;100130;;;12.5;100.0
68320;BME280;55168;51.120;17.024;2022-10-16T02:26:00;100130;;;12.5;100.0
68320;BME280;55168;51.120;17.024;2022-10-16T02:28:04;100130;;;12.5;100.0
68320;BME280;55168;51.120;17.024;2022-10-16T02:29:00;100130;;;12.5;100.0
68320;BME280;55168;51.120;17.024;2022-10-16T02:30:03;100140;;;12.5;100.0
68320;BME280;55168;51.120;17.024;2022-10-16T02:31:01;100140;;;12.5;100.0
68320;BME280;55168;51.120;17.024;2022-10-16T02:32:01;100140;;;12.5;100.0
68320;BME280;55168;51.120;17.024;2022-10-16T02:33:00;100140;;;12.5;100.0
68320;BME280;55168;51.120;17.024;2022-10-16T02:34:00;100150;;;12.5;100.0
68320;BME280;55168;51.120;17.024;2022-10-16T02:35:00;100150;;;12.5;100.0
68320;BME280;55168;51.120;17.024;2022-10-16T02:36:00;100160;;;12.4;100.0
68320;BME280;55168;51.120;17.024;2022-10-16T02:37:00;100150;;;12.4;100.0
68320;BME280;55168;51.120;17.024;2022-10-16T02:38:00;100160;;;12.5;100.0
68320;BME280;55168;51.120;17.024;2022-10-16T02:39:00;100160;;;12.4;100.0
68320;BME280;55168;51.120;17.024;2022-10-16T02:40:00;100150;;;12.4;100.0
68320;BME280;55168;51.120;17.024;2022-10-16T02:41:00;100150;;;12.4;100.0
68320;BME280;55168;51.120;17.024;2022-10-16T02:42:00;100150;;;12.4;100.0
68320;BME280;55168;51.120;17.024;2022-10-16T02:43:00;100150;;;12.4;100.0
68320;BME280;55168;51.120;17.024;2022-10-16T02:44:00;100150;;;12.4;100.0
68320;BME280;55168;51.120;17.024;2022-10-16T02:45:00;100150;;;12.4;100.0
68320;BME280;55168;51.120;17.024;2022-10-16T02:46:00;100150;;;12.5;100.0
68320;BME280;55168;51.120;17.024;2022-10-16T02:47:00;100150;;;12.5;100.0
68320;BME280;55168;51.120;17.024;2022-10-16T02:48:00;100150;;;12.5;100.0
68320;BME280;55168;51.120;17.024;2022-10-16T02:49:00;100140;;;12.5;100.0
68320;BME280;55168;51.120;17.024;2022-10-16T02:50:00;100140;;;12.5;100.0
68320;BME280;55168;51.120;17.024;2022-10-16T02:51:00;100150;;;12.5;100.0
68320;BME280;55168;51.120;17.024;2022-10-16T02:52:00;100140;;;12.4;100.0
68320;BME280;55168;51.120;17.024;2022-10-16T02:53:00;100150;;;12.4;100.0
68320;BME280;55168;51.120;17.024;2022-10-16T02:54:00;100150;;;12.4;100.0
68320;BME280;55168;51.120;17.024;2022-10-16T02:55:00;100150;;;12.4;100.0
68320;BME280;55168;51.120;17.024;2022-10-16T02:56:00;100150;;;12.4;100.0
68320;BME280;55168;51.120;17.024;2022-10-16T02:57:00;100150;;;12.4;100.0
68320;BME280;55168;51.120;17.024;2022-10-16T02:58:00;100150;;;12.4;100.0
68320;BME280;55168;51.120;17.024;2022-10-16T02:59:00;100160;;;12.4;100.0
68320;BME280;55168;51.120;17.024;2022-10-16T03:00:00;100150;;;12.4;100.0
68320;BME280;55168;51.120;17.024;2022-10-16T03:01:00;100150;;;12.4;100.0
68320;BME280;55168;51.120;17.024;2022-10-16T03:02:00;100150;;;12.4;100.0
68320;BME280;55168;51.120;17.024;2022-10-16T03:03:00;100150;;;12.4;100.0
68320;BME280;55168;51.120;17.024;2022-10-16T03:04:00;100150;;;12.4;100.0
68320;BME280;55168;51.120;17.024;2022-10-16T03:05:00;100150;;;12.4;100.0
68320;BME280;55168;51.120;17.024;2022-10-16T03:06:02;100150;;;12.4;100.0
68320;BME280;55168;51.120;17.024;2022-10-16T03:07:00;100160;;;12.4;100.0
68320;BME280;55168;51.120;17.024;2022-10-16T03:08:00;100160;;;12.4;100.0
68320;BME280;55168;51.120;17.024;2022-10-16T03:09:00;100160;;;12.4;100.0
68320;BME280;55168;51.120;17.024;2022-10-16T03:10:00;100160;;;12.4;100.0
68320;BME280;55168;51.120;17.024;2022-10-16T03:11:00;100160;;;12.4;100.0
68320;BME280;55168;51.120;17.024;2022-10-16T03:12:00;100160;;;12.4;100.0
68320;BME280;55168;51.120;17.024;2022-10-16T03:13:00;100170;;;12.4;100.0
68320;BME280;55168;51.120;17.024;2022-10-16T03:14:00;100170;;;12.4;100.0
68320;BME280;55168;51.120;17.024;2022-10-16T03:15:00;100170;;;12.4;100.0
68320;BME280;55168;51.120;17.024;2022-10-16T03:16:00;100170;;;12.5;100.0
68320;BME280;55168;51.120;17.024;2022-10-16T03:17:00;100170;;;12.5;100.0
68320;BME280;55168;51.120;17.024;2022-10-16T03:18:00;100170;;;12.5;100.0
68320;BME280;55168;51.120;17.024;2022-10-16T03:19:00;100180;;;12.5;100.0
68320;BME280;55168;51.120;17.024;2022-10-16T03:20:00;100180;;;12.5;100.0
68320;BME280;55168;51.120;17.024;2022-10-16T03:21:00;100170;;;12.5;100.0
68320;BME280;55168;51.120;17.024;2022-10-16T03:22:00;100170;;;12.5;100.0
68320;BME280;55168;51.120;17.024;2022-10-16T03:23:00;100180;;;12.4;100.0
68320;BME280;55168;51.120;17.024;2022-10-16T03:24:00;100180;;;12.4;100.0
68320;BME280;55168;51.120;17.024;2022-10-16T03:25:00;100170;;;12.4;100.0
68320;BME280;55168;51.120;17.024;2022-10-16T03:26:00;100170;;;12.4;100.0
68320;BME280;55168;51.120;17.024;2022-10-16T03:27:00;100170;;;12.4;100.0
68320;BME280;55168;51.120;17.024;2022-10-16T03:28:00;100160;;;12.4;100.0
68320;BME280;55168;51.120;17.024;2022-10-16T03:29:00;100160;;;12.4;100.0
68320;BME280;55168;51.120;17.024;2022-10-16T03:30:00;100160;;;12.4;100.0
68320;BME280;55168;51.120;17.024;2022-10-16T03:31:00;100160;;;12.4;100.0
68320;BME280;55168;51.120;17.024;2022-10-16T03:32:00;100160;;;12.5;100.0
68320;BME280;55168;51.120;17.024;2022-10-16T03:33:00;100160;;;12.5;100.0
68320;BME280;55168;51.120;17.024;2022-10-16T03:34:00;100160;;;12.5;100.0
68320;BME280;55168;51.120;17.024;2022-10-16T03:35:00;100160;;;12.5;100.0
68320;BME280;55168;51.120;17.024;2022-10-16T03:36:00;100170;;;12.4;100.0
68320;BME280;55168;51.120;17.024;2022-10-16T03:37:00;100170;;;12.4;100.0
68320;BME280;55168;51.120;17.024;2022-10-16T03:38:00;100170;;;12.4;100.0
68320;BME280;55168;51.120;17.024;2022-10-16T03:39:00;100170;;;12.4;100.0
68320;BME280;55168;51.120;17.024;2022-10-16T03:40:00;100180;;;12.4;100.0
68320;BME280;55168;51.120;17.024;2022-10-16T03:41:00;100170;;;12.4;100.0
68320;BME280;55168;51.120;17.024;2022-10-16T03:42:00;100180;;;12.5;100.0
68320;BME280;55168;51.120;17.024;2022-10-16T03:43:00;100180;;;12.5;100.0
68320;BME280;55168;51.120;17.024;2022-10-16T03:44:00;100180;;;12.5;100.0
68320;BME280;55168;51.120;17.024;2022-10-16T03:45:00;100180;;;12.5;100.0
68320;BME280;55168;51.120;17.024;2022-10-16T03:46:00;100190;;;12.5;100.0
68320;BME280;55168;51.120;17.024;2022-10-16T03:47:00;100180;;;12.5;100.0
68320;BME280;55168;51.120;17.024;2022-10-16T03:48:00;100190;;;12.6;100.0
68320;BME280;55168;51.120;17.024;2022-10-16T03:49:00;100180;;;12.6;100.0
68320;BME280;55168;51.120;17.024;2022-10-16T03:50:00;100180;;;12.6;100.0
68320;BME280;55168;51.120;17.024;2022-10-16T03:51:00;100180;;;12.7;100.0
68320;BME280;55168;51.120;17.024;2022-10-16T03:52:00;100190;;;12.8;100.0
68320;BME280;55168;51.120;17.024;2022-10-16T03:53:00;100180;;;12.8;100.0
68320;BME280;55168;51.120;17.024;2022-10-16T03:54:00;100180;;;12.8;100.0
68320;BME280;55168;51.120;17.024;2022-10-16T03:55:00;100180;;;12.8;100.0
68320;BME280;55168;51.120;17.024;2022-10-16T03:56:02;100190;;;12.8;100.0
68320;BME280;55168;51.120;17.024;2022-10-16T03:57:00;100180;;;12.8;100.0
68320;BME280;55168;51.120;17.024;2022-10-16T03:58:00;100180;;;12.8;100.0
68320;BME280;55168;51.120;17.024;2022-10-16T03:59:00;100180;;;12.8;100.0
68320;BME280;55168;51.120;17.024;2022-10-16T04:00:00;100180;;;12.8;100.0
68320;BME280;55168;51.120;17.024;2022-10-16T04:01:00;100190;;;12.8;100.0
68320;BME280;55168;51.120;17.024;2022-10-16T04:02:00;100190;;;12.8;100.0
68320;BME280;55168;51.120;17.024;2022-10-16T04:03:00;100190;;;12.8;100.0
68320;BME280;55168;51.120;17.024;2022-10-16T04:04:00;100190;;;12.9;100.0
68320;BME280;55168;51.120;17.024;2022-10-16T04:05:00;100190;;;12.9;100.0
68320;BME280;55168;51.120;17.024;2022-10-16T04:06:00;100190;;;12.9;100.0
68320;BME280;55168;51.120;17.024;2022-10-16T04:07:00;100190;;;12.9;100.0
68320;BME280;55168;51.120;17.024;2022-10-16T04:08:00;100190;;;12.9;100.0
68320;BME280;55168;51.120;17.024;2022-10-16T04:09:00;100190;;;12.9;100.0
68320;BME280;55168;51.120;17.024;2022-10-16T04:10:00;100190;;;12.9;100.0
68320;BME280;55168;51.120;17.024;2022-10-16T04:11:00;100190;;;12.9;100.0
68320;BME280;55168;51.120;17.024;2022-10-16T04:12:00;100190;;;12.9;100.0
68320;BME280;55168;51.120;17.024;2022-10-16T04:13:00;100200;;;12.9;100.0
68320;BME280;55168;51.120;17.024;2022-10-16T04:14:00;100190;;;12.9;100.0
68320;BME280;55168;51.120;17.024;2022-10-16T04:15:00;100200;;;12.9;100.0
68320;BME280;55168;51.120;17.024;2022-10-16T04:16:00;100190;;;12.8;100.0
68320;BME280;55168;51.120;17.024;2022-10-16T04:17:00;100200;;;12.8;100.0
68320;BME280;55168;51.120;17.024;2022-10-16T04:18:00;100200;;;12.8;100.0
68320;BME280;55168;51.120;17.024;2022-10-16T04:19:00;100200;;;12.9;100.0
68320;BME280;55168;51.120;17.024;2022-10-16T04:20:00;100200;;;12.9;100.0
68320;BME280;55168;51.120;17.024;2022-10-16T04:21:03;100200;;;12.9;100.0
68320;BME280;55168;51.120;17.024;2022-10-16T04:22:00;100200;;;12.9;100.0
68320;BME280;55168;51.120;17.024;2022-10-16T04:23:00;100200;;;12.9;100.0
68320;BME280;55168;51.120;17.024;2022-10-16T04:24:00;100190;;;12.9;100.0
68320;BME280;55168;51.120;17.024;2022-10-16T04:25:00;100190;;;12.9;100.0
68320;BME280;55168;51.120;17.024;2022-10-16T04:26:01;100190;;;12.9;100.0
68320;BME280;55168;51.120;17.024;2022-10-16T04:28:00;100200;;;12.9;100.0
68320;BME280;55168;51.120;17.024;2022-10-16T04:29:00;100200;;;12.9;100.0
68320;BME280;55168;51.120;17.024;2022-10-16T04:30:00;100200;;;12.9;100.0
68320;BME280;55168;51.120;17.024;2022-10-16T04:31:00;100200;;;12.9;100.0
68320;BME280;55168;51.120;17.024;2022-10-16T04:32:00;100200;;;12.8;100.0
68320;BME280;55168;51.120;17.024;2022-10-16T04:33:00;100200;;;12.8;100.0
68320;BME280;55168;51.120;17.024;2022-10-16T04:34:00;100200;;;12.8;100.0
68320;BME280;55168;51.120;17.024;2022-10-16T04:35:00;100200;;;12.8;100.0
68320;BME280;55168;51.120;17.024;2022-10-16T04:36:00;100200;;;12.8;100.0
68320;BME280;55168;51.120;17.024;2022-10-16T04:37:01;100210;;;12.7;100.0
68320;BME280;55168;51.120;17.024;2022-10-16T04:38:00;100210;;;12.8;100.0
68320;BME280;55168;51.120;17.024;2022-10-16T04:39:00;100210;;;12.8;100.0
68320;BME280;55168;51.120;17.024;2022-10-16T04:40:00;100210;;;12.8;100.0
68320;BME280;55168;51.120;17.024;2022-10-16T04:41:00;100210;;;12.7;100.0
68320;BME280;55168;51.120;17.024;2022-10-16T04:42:00;100210;;;12.7;100.0
68320;BME280;55168;51.120;17.024;2022-10-16T04:43:00;100210;;;12.7;100.0
68320;BME280;55168;51.120;17.024;2022-10-16T04:44:04;100210;;;12.8;100.0
68320;BME280;55168;51.120;17.024;2022-10-16T04:45:00;100210;;;12.8;100.0
68320;BME280;55168;51.120;17.024;2022-10-16T04:46:00;100210;;;12.8;100.0
68320;BME280;55168;51.120;17.024;2022-10-16T04:47:00;100210;;;12.9;100.0
68320;BME280;55168;51.120;17.024;2022-10-16T04:48:00;100210;;;12.9;100.0
68320;BME280;55168;51.120;17.024;2022-10-16T04:49:00;100210;;;12.9;100.0
68320;BME280;55168;51.120;17.024;2022-10-16T04:50:00;100220;;;12.9;100.0
68320;BME280;55168;51.120;17.024;2022-10-16T04:51:00;100220;;;12.9;100.0
68320;BME280;55168;51.120;17.024;2022-10-16T04:52:00;100220;;;12.9;100.0
68320;BME280;55168;51.120;17.024;2022-10-16T04:53:00;100220;;;12.9;100.0
68320;BME280;55168;51.120;17.024;2022-10-16T04:54:00;100210;;;12.9;100.0
68320;BME280;55168;51.120;17.024;2022-10-16T04:55:00;100210;;;12.9;100.0
68320;BME280;55168;51.120;17.024;2022-10-16T04:56:00;100220;;;12.9;100.0
68320;BME280;55168;51.120;17.024;2022-10-16T04:57:00;100210;;;12.8;100.0
68320;BME280;55168;51.120;17.024;2022-10-16T04:58:00;100210;;;12.8;100.0
68320;BME280;55168;51.120;17.024;2022-10-16T04:59:00;100210;;;12.8;100.0
68320;BME280;55168;51.120;17.024;2022-10-16T05:00:00;100210;;;12.8;100.0
68320;BME280;55168;51.120;17.024;2022-10-16T05:01:00;100210;;;12.7;100.0
68320;BME280;55168;51.120;17.024;2022-10-16T05:02:00;100210;;;12.7;100.0
68320;BME280;55168;51.120;17.024;2022-10-16T05:03:00;100210;;;12.7;100.0
68320;BME280;55168;51.120;17.024;2022-10-16T05:04:00;100220;;;12.7;100.0
68320;BME280;55168;51.120;17.024;2022-10-16T05:05:00;100210;;;12.7;100.0
68320;BME280;55168;51.120;17.024;2022-10-16T05:06:00;100210;;;12.6;100.0
68320;BME280;55168;51.120;17.024;2022-10-16T05:07:00;100210;;;12.6;100.0
68320;BME280;55168;51.120;17.024;2022-10-16T05:08:00;100210;;;12.6;100.0
68320;BME280;55168;51.120;17.024;2022-10-16T05:09:00;100220;;;12.6;100.0
68320;BME280;55168;51.120;17.024;2022-10-16T05:10:00;100220;;;12.6;100.0
68320;BME280;55168;51.120;17.024;2022-10-16T05:11:00;100220;;;12.6;100.0
68320;BME280;55168;51.120;17.024;2022-10-16T05:12:00;100220;;;12.5;100.0
68320;BME280;55168;51.120;17.024;2022-10-16T05:13:00;100230;;;12.5;100.0
68320;BME280;55168;51.120;17.024;2022-10-16T05:14:00;100230;;;12.5;100.0
68320;BME280;55168;51.120;17.024;2022-10-16T05:15:00;100230;;;12.5;100.0
68320;BME280;55168;51.120;17.024;2022-10-16T05:16:00;100230;;;12.5;100.0
68320;BME280;55168;51.120;17.024;2022-10-16T05:17:00;100230;;;12.5;100.0
68320;BME280;55168;51.120;17.024;2022-10-16T05:18:00;100230;;;12.5;100.0
68320;BME280;55168;51.120;17.024;2022-10-16T05:19:00;100240;;;12.5;100.0
68320;BME280;55168;51.120;17.024;2022-10-16T05:20:00;100230;;;12.5;100.0
68320;BME280;55168;51.120;17.024;2022-10-16T05:21:00;100240;;;12.5;100.0
68320;BME280;55168;51.120;17.024;2022-10-16T05:22:00;100230;;;12.5;100.0
68320;BME280;55168;51.120;17.024;2022-10-16T05:23:00;100230;;;12.5;100.0
68320;BME280;55168;51.120;17.024;2022-10-16T05:24:00;100230;;;12.5;100.0
68320;BME280;55168;51.120;17.024;2022-10-16T05:25:00;100230;;;12.5;100.0
68320;BME280;55168;51.120;17.024;2022-10-16T05:26:00;100230;;;12.5;100.0
68320;BME280;55168;51.120;17.024;2022-10-16T05:27:00;100230;;;12.5;100.0
68320;BME280;55168;51.120;17.024;2022-10-16T05:28:00;100230;;;12.5;100.0
68320;BME280;55168;51.120;17.024;2022-10-16T05:29:00;100220;;;12.5;100.0
68320;BME280;55168;51.120;17.024;2022-10-16T05:30:00;100230;;;12.5;100.0
68320;BME280;55168;51.120;17.024;2022-10-16T05:31:03;100230;;;12.5;100.0
68320;BME280;55168;51.120;17.024;2022-10-16T05:32:00;100230;;;12.5;100.0
68320;BME280;55168;51.120;17.024;2022-10-16T05:33:00;100230;;;12.5;100.0
68320;BME280;55168;51.120;17.024;2022-10-16T05:34:00;100230;;;12.5;100.0
68320;BME280;55168;51.120;17.024;2022-10-16T05:35:00;100230;;;12.5;100.0
68320;BME280;55168;51.120;17.024;2022-10-16T05:36:01;100240;;;12.5;100.0
68320;BME280;55168;51.120;17.024;2022-10-16T05:37:00;100240;;;12.4;100.0
68320;BME280;55168;51.120;17.024;2022-10-16T05:38:00;100250;;;12.4;100.0